createdAt,value
2022-09-15T00:03:14.115Z,12.90
2022-09-15T00:08:16.697Z,10.57
2022-09-15T00:13:19.509Z,10.20
2022-09-15T00:18:21.782Z,11.70
2022-09-15T00:23:24.060Z,9.80
2022-09-15T00:28:26.369Z,10.30
2022-09-15T00:33:28.586Z,8.67
2022-09-15T00:38:30.958Z,8.17
2022-09-15T00:43:47.904Z,8.70
2022-09-15T00:49:18.548Z,11.80
2022-09-15T00:54:32.589Z,11.10
2022-09-15T00:59:37.715Z,8.63
2022-09-15T01:04:39.976Z,8.33
2022-09-15T01:09:48.291Z,7.67
2022-09-15T01:14:50.765Z,9.60
2022-09-15T01:20:24.801Z,6.60
2022-09-15T01:26:02.880Z,9.13
2022-09-15T01:32:09.510Z,9.07
2022-09-15T01:38:22.969Z,11.50
2022-09-15T01:44:26.599Z,9.20
2022-09-15T01:49:53.618Z,10.40
2022-09-15T01:55:09.418Z,12.00
2022-09-15T02:00:15.846Z,18.83
2022-09-15T02:05:54.560Z,11.13
2022-09-15T02:11:18.483Z,11.80
2022-09-15T02:22:12.430Z,9.87
2022-09-15T02:27:22.743Z,10.07
2022-09-15T02:32:30.661Z,9.48
2022-09-15T02:37:34.360Z,12.23
2022-09-15T02:42:37.448Z,18.00
2022-09-15T02:47:40.324Z,12.03
2022-09-15T02:52:45.286Z,11.50
2022-09-15T02:57:52.616Z,12.53
2022-09-15T03:03:03.195Z,13.03
2022-09-15T03:08:08.960Z,13.00
2022-09-15T03:13:12.254Z,15.73
2022-09-15T03:18:14.612Z,12.17
2022-09-15T03:23:17.108Z,13.53
2022-09-15T03:28:19.612Z,11.50
2022-09-15T03:33:26.651Z,14.93
2022-09-15T03:38:36.163Z,16.20
2022-09-15T03:43:40.043Z,13.67
2022-09-15T03:48:44.519Z,14.13
2022-09-15T03:53:47.957Z,12.77
2022-09-15T03:58:52.744Z,13.87
2022-09-15T04:03:58.141Z,12.03
2022-09-15T04:09:02.369Z,12.00
2022-09-15T04:14:06.913Z,10.97
2022-09-15T04:19:11.006Z,10.77
2022-09-15T04:24:17.676Z,11.13
2022-09-15T04:29:20.600Z,12.37
2022-09-15T04:34:23.004Z,11.80
2022-09-15T04:39:25.844Z,10.30
2022-09-15T04:44:28.137Z,10.50
2022-09-15T04:50:20.003Z,13.73
2022-09-15T04:55:22.364Z,11.27
2022-09-15T05:00:25.246Z,12.10
2022-09-15T05:05:28.792Z,11.13
2022-09-15T05:10:31.960Z,11.03
2022-09-15T05:15:34.200Z,11.00
2022-09-15T05:20:39.200Z,13.33
2022-09-15T05:25:41.475Z,11.47
2022-09-15T05:30:44.560Z,11.43
2022-09-15T05:35:51.860Z,10.50
2022-09-15T05:41:06.028Z,11.13
2022-09-15T05:46:08.723Z,9.87
2022-09-15T05:51:11.157Z,15.03
2022-09-15T05:56:14.844Z,14.27
2022-09-15T06:01:19.667Z,12.17
2022-09-15T06:06:24.735Z,11.07
2022-09-15T06:11:29.001Z,10.97
2022-09-15T06:16:33.528Z,9.60
2022-09-15T06:21:35.823Z,11.13
2022-09-15T06:26:37.932Z,11.27
2022-09-15T06:31:40.752Z,13.67
2022-09-15T06:36:42.901Z,11.23
2022-09-15T06:42:01.674Z,11.43
2022-09-15T06:47:04.550Z,7.22
2022-09-15T06:52:07.236Z,4.57
2022-09-15T06:57:09.471Z,4.07
2022-09-15T07:02:12.175Z,3.00
2022-09-15T07:07:14.430Z,3.43
2022-09-15T07:12:16.673Z,4.57
2022-09-15T07:17:18.846Z,6.67
2022-09-15T07:22:21.281Z,8.87
2022-09-15T07:27:27.086Z,9.17
2022-09-15T07:32:29.556Z,6.43
2022-09-15T07:37:33.427Z,7.67
2022-09-15T07:42:35.765Z,6.00
2022-09-15T07:47:38.815Z,6.57
2022-09-15T07:52:40.987Z,3.93
2022-09-15T07:57:43.247Z,5.47
2022-09-15T08:02:45.452Z,4.57
2022-09-15T08:07:47.659Z,2.97
2022-09-15T08:12:49.845Z,2.17
2022-09-15T08:17:52.557Z,3.23
2022-09-15T08:22:54.727Z,2.53
2022-09-15T08:27:57.071Z,2.73
2022-09-15T08:32:59.350Z,5.50
2022-09-15T08:38:01.517Z,5.30
2022-09-15T08:43:22.164Z,4.83
2022-09-15T08:48:36.663Z,5.40
2022-09-15T08:53:45.914Z,6.57
2022-09-15T08:58:48.559Z,5.25
2022-09-15T09:04:00.010Z,4.03
2022-09-15T09:09:27.987Z,6.80
2022-09-15T09:14:57.038Z,5.57
2022-09-15T09:20:40.111Z,5.23
2022-09-15T09:25:43.302Z,5.23
2022-09-15T09:30:46.166Z,5.23
2022-09-15T09:35:52.793Z,4.80
2022-09-15T09:40:59.865Z,5.83
2022-09-15T09:51:33.735Z,5.70
2022-09-15T09:56:35.881Z,3.20
2022-09-15T10:01:38.281Z,3.07
2022-09-15T10:06:42.298Z,2.80
2022-09-15T10:11:55.367Z,5.27
2022-09-15T10:17:02.528Z,4.00
2022-09-15T10:22:05.221Z,3.37
2022-09-15T10:27:09.360Z,4.73
2022-09-15T10:32:29.487Z,4.27
2022-09-15T10:37:48.745Z,3.70
2022-09-15T10:42:55.912Z,4.80
2022-09-15T10:48:35.795Z,3.03
2022-09-15T10:53:51.351Z,5.65
2022-09-15T10:58:58.911Z,4.17
2022-09-15T11:04:16.292Z,4.70
2022-09-15T11:09:18.562Z,4.53
2022-09-15T11:14:27.448Z,4.50
2022-09-15T11:20:02.061Z,4.67
2022-09-15T11:25:11.049Z,5.97
2022-09-15T11:30:31.956Z,4.77
2022-09-15T11:35:38.695Z,7.57
2022-09-15T11:41:07.184Z,6.00
2022-09-15T11:46:14.629Z,4.70
2022-09-15T11:51:20.359Z,6.83
2022-09-15T11:56:40.667Z,8.67
2022-09-15T12:01:54.942Z,6.27
2022-09-15T12:07:23.948Z,6.13
2022-09-15T12:12:30.667Z,7.23
2022-09-15T12:17:48.544Z,5.87
2022-09-15T12:22:57.319Z,5.53
2022-09-15T12:28:24.372Z,7.13
2022-09-15T12:33:47.391Z,5.00
2022-09-15T12:38:49.881Z,4.13
2022-09-15T12:43:57.911Z,8.70
2022-09-15T12:49:03.324Z,10.53
2022-09-15T12:54:08.764Z,3.00
2022-09-15T12:59:14.940Z,3.97
2022-09-15T13:04:43.981Z,3.60
2022-09-15T13:09:57.224Z,2.47
2022-09-15T13:15:02.677Z,4.37
2022-09-15T13:20:10.421Z,4.10
2022-09-15T13:25:15.921Z,3.47
2022-09-15T13:30:21.144Z,3.47
2022-09-15T13:35:45.277Z,2.87
2022-09-15T13:40:50.694Z,2.57
2022-09-15T13:46:06.097Z,2.50
2022-09-15T13:51:29.869Z,2.07
2022-09-15T13:56:36.952Z,2.37
2022-09-15T14:01:39.395Z,2.67
2022-09-15T14:06:53.621Z,2.97
2022-09-15T14:12:03.847Z,2.63
2022-09-15T14:17:24.218Z,3.67
2022-09-15T14:22:45.484Z,4.73
2022-09-15T14:28:06.596Z,2.77
2022-09-15T14:39:22.422Z,1.10
2022-09-15T14:50:10.044Z,3.20
2022-09-15T14:55:23.418Z,2.67
2022-09-15T15:00:30.079Z,2.63
2022-09-15T15:05:47.185Z,3.13
2022-09-15T15:10:49.459Z,2.17
2022-09-15T15:15:52.131Z,1.53
2022-09-15T15:20:54.385Z,4.10
2022-09-15T15:26:29.139Z,3.07
2022-09-15T15:31:32.292Z,5.00
2022-09-15T15:36:36.727Z,2.80
2022-09-15T15:41:42.735Z,4.40
2022-09-15T15:46:53.836Z,5.60
2022-09-15T15:52:00.305Z,5.37
2022-09-15T15:57:21.732Z,4.60
2022-09-15T16:02:24.581Z,11.87
2022-09-15T16:07:31.077Z,11.60
2022-09-15T16:12:35.542Z,12.77
2022-09-15T16:17:37.880Z,13.63
2022-09-15T16:22:40.822Z,14.93
2022-09-15T16:27:43.030Z,10.20
2022-09-15T16:32:45.219Z,28.77
2022-09-15T16:37:47.465Z,75.00
2022-09-15T16:42:49.797Z,52.80
2022-09-15T16:47:52.000Z,24.63
2022-09-15T16:52:54.729Z,27.33
2022-09-15T16:57:57.094Z,32.93
2022-09-15T17:02:59.673Z,21.50
2022-09-15T17:08:02.349Z,16.57
2022-09-15T17:13:05.390Z,11.67
2022-09-15T17:18:10.171Z,13.23
2022-09-15T17:23:23.606Z,11.37
2022-09-15T17:28:31.718Z,9.27
2022-09-15T17:33:34.005Z,7.60
2022-09-15T17:38:41.318Z,10.83
2022-09-15T17:43:43.975Z,25.70
2022-09-15T17:48:46.381Z,8.43
2022-09-15T17:53:48.742Z,15.90
2022-09-15T17:58:51.101Z,10.87
2022-09-15T18:03:53.340Z,14.37
2022-09-15T18:08:55.559Z,7.03
2022-09-15T18:13:57.755Z,6.07
2022-09-15T18:19:00.113Z,9.07
2022-09-15T18:24:02.496Z,7.87
2022-09-15T18:29:04.820Z,11.37
2022-09-15T18:34:08.328Z,9.57
2022-09-15T18:39:12.255Z,10.23
2022-09-15T18:44:14.618Z,9.47
2022-09-15T18:49:16.995Z,9.67
2022-09-15T18:54:19.504Z,9.67
2022-09-15T18:59:21.913Z,12.13
2022-09-15T19:04:26.360Z,14.27
2022-09-15T19:09:32.141Z,17.77
2022-09-15T19:14:34.529Z,14.73
2022-09-15T19:19:36.870Z,9.27
2022-09-15T19:24:39.414Z,9.00
2022-09-15T19:29:41.906Z,19.63
2022-09-15T19:34:44.808Z,11.93
2022-09-15T19:39:48.226Z,21.70
2022-09-15T19:44:51.690Z,16.07
2022-09-15T19:49:53.988Z,11.10
2022-09-15T19:54:56.285Z,13.67
2022-09-15T19:59:58.530Z,7.47
2022-09-15T20:05:00.841Z,15.70
2022-09-15T20:10:03.545Z,7.80
2022-09-15T20:15:07.292Z,7.27
2022-09-15T20:20:11.843Z,7.93
2022-09-15T20:25:14.258Z,8.03
2022-09-15T20:30:16.461Z,12.63
2022-09-15T20:35:18.699Z,7.27
2022-09-15T20:40:21.031Z,14.73
2022-09-15T20:45:23.318Z,15.27
2022-09-15T20:50:27.574Z,13.30
2022-09-15T20:55:29.816Z,15.63
2022-09-15T21:00:34.026Z,13.23
2022-09-15T21:05:36.365Z,12.63
2022-09-15T21:10:41.859Z,13.77
2022-09-15T21:15:44.133Z,8.50
2022-09-15T21:20:48.128Z,12.30
2022-09-15T21:26:02.150Z,8.87
2022-09-15T21:31:06.768Z,11.20
2022-09-15T21:36:14.912Z,12.83
2022-09-15T21:41:23.563Z,12.63
2022-09-15T21:46:28.616Z,11.77
2022-09-15T21:51:31.165Z,7.20
2022-09-15T21:56:33.688Z,10.40
2022-09-15T22:01:35.874Z,9.83
2022-09-15T22:06:40.804Z,5.80
2022-09-15T22:11:43.324Z,7.77
2022-09-15T22:16:45.563Z,10.00
2022-09-15T22:21:47.928Z,7.53
2022-09-15T22:26:50.361Z,10.10
2022-09-15T22:31:52.752Z,7.97
2022-09-15T22:36:55.070Z,5.97
2022-09-15T22:41:57.280Z,6.57
2022-09-15T22:46:59.509Z,10.37
2022-09-15T22:52:04.859Z,8.00
2022-09-15T22:57:07.703Z,11.27
2022-09-15T23:02:10.211Z,7.83
2022-09-15T23:07:12.502Z,5.87
2022-09-15T23:12:15.116Z,7.57
2022-09-15T23:17:17.305Z,8.13
2022-09-15T23:22:19.516Z,6.77
2022-09-15T23:27:21.887Z,9.67
2022-09-15T23:32:24.233Z,8.67
2022-09-15T23:37:26.464Z,8.80
2022-09-15T23:42:28.672Z,9.27
2022-09-15T23:47:30.898Z,8.80
2022-09-15T23:52:33.239Z,7.93
2022-09-15T23:57:35.444Z,8.53
